createdAt,value
2022-08-12T00:00:05.846Z,4.27
2022-08-12T00:02:51.132Z,5.73
2022-08-12T00:05:39.912Z,3.87
2022-08-12T00:08:45.435Z,3.20
2022-08-12T00:11:30.639Z,3.40
2022-08-12T00:14:15.937Z,3.10
2022-08-12T00:17:01.644Z,4.17
2022-08-12T00:19:47.053Z,3.27
2022-08-12T00:22:33.315Z,3.97
2022-08-12T00:25:20.011Z,6.37
2022-08-12T00:28:25.480Z,3.10
2022-08-12T00:31:11.497Z,3.27
2022-08-12T00:33:57.384Z,3.17
2022-08-12T00:36:50.075Z,3.37
2022-08-12T00:39:36.158Z,3.53
2022-08-12T00:42:12.890Z,3.37
2022-08-12T00:44:45.567Z,3.40
2022-08-12T00:47:25.183Z,3.63
2022-08-12T00:49:54.970Z,3.20
2022-08-12T00:52:22.898Z,3.67
2022-08-12T00:54:59.520Z,3.73
2022-08-12T00:57:31.860Z,4.23
2022-08-12T01:00:08.561Z,3.40
2022-08-12T01:02:40.564Z,5.57
2022-08-12T01:05:32.589Z,4.67
2022-08-12T01:08:18.469Z,4.30
2022-08-12T01:11:05.440Z,3.30
2022-08-12T01:13:34.517Z,5.23
2022-08-12T01:16:03.985Z,4.57
2022-08-12T01:18:39.511Z,5.57
2022-08-12T01:21:09.013Z,4.07
2022-08-12T01:24:31.452Z,3.50
2022-08-12T01:27:00.156Z,4.83
2022-08-12T01:29:32.832Z,4.70
2022-08-12T01:32:05.441Z,4.83
2022-08-12T01:34:37.546Z,3.63
2022-08-12T01:37:10.072Z,7.10
2022-08-12T01:40:33.931Z,4.27
2022-08-12T01:42:49.042Z,6.07
2022-08-12T01:45:17.752Z,3.60
2022-08-12T01:48:15.976Z,3.17
2022-08-12T01:51:00.238Z,3.17
2022-08-12T01:53:50.433Z,3.40
2022-08-12T01:56:22.054Z,3.33
2022-08-12T01:59:12.532Z,3.50
2022-08-12T02:01:41.438Z,3.77
2022-08-12T02:04:54.661Z,5.97
2022-08-12T02:07:56.799Z,6.47
2022-08-12T02:11:00.693Z,5.87
2022-08-12T02:13:55.376Z,7.93
2022-08-12T02:16:40.321Z,6.23
2022-08-12T02:19:22.456Z,10.43
2022-08-12T02:22:12.683Z,4.43
2022-08-12T02:24:42.390Z,3.97
2022-08-12T02:27:10.629Z,8.37
2022-08-12T02:29:39.653Z,6.83
2022-08-12T02:32:07.507Z,3.50
2022-08-12T02:34:35.250Z,5.57
2022-08-12T02:37:03.924Z,5.30
2022-08-12T02:39:34.054Z,5.73
2022-08-12T02:42:03.952Z,6.87
2022-08-12T02:44:37.601Z,4.80
2022-08-12T02:47:06.379Z,4.80
2022-08-12T02:49:39.924Z,4.70
2022-08-12T02:52:10.326Z,5.40
2022-08-12T02:54:38.713Z,6.43
2022-08-12T02:57:06.281Z,6.57
2022-08-12T02:59:35.681Z,5.03
2022-08-12T03:02:04.195Z,6.13
2022-08-12T03:04:46.440Z,5.70
2022-08-12T03:07:55.837Z,4.70
2022-08-12T03:10:34.699Z,4.30
2022-08-12T03:13:07.213Z,5.20
2022-08-12T03:15:35.762Z,4.73
2022-08-12T03:18:37.768Z,5.73
2022-08-12T03:21:04.662Z,4.90
2022-08-12T03:23:31.678Z,6.03
2022-08-12T03:26:03.195Z,6.57
2022-08-12T03:28:52.049Z,4.67
2022-08-12T03:31:25.901Z,5.70
2022-08-12T03:34:01.911Z,12.17
2022-08-12T03:36:35.729Z,5.33
2022-08-12T03:39:16.009Z,6.23
2022-08-12T03:42:07.642Z,3.43
2022-08-12T03:45:04.834Z,4.93
2022-08-12T03:47:53.804Z,7.97
2022-08-12T03:50:39.671Z,4.93
2022-08-12T03:53:27.079Z,5.30
2022-08-12T03:56:13.007Z,7.93
2022-08-12T03:59:00.397Z,7.90
2022-08-12T04:01:27.535Z,6.50
2022-08-12T04:03:55.039Z,7.57
2022-08-12T04:06:34.550Z,5.47
2022-08-12T04:09:05.300Z,5.73
2022-08-12T04:12:01.609Z,6.13
2022-08-12T04:14:28.438Z,8.67
2022-08-12T04:16:57.153Z,7.70
2022-08-12T04:19:26.310Z,9.47
2022-08-12T04:22:01.663Z,8.70
2022-08-12T04:24:35.501Z,10.37
2022-08-12T04:27:08.703Z,9.43
2022-08-12T04:30:21.112Z,7.40
2022-08-12T04:32:25.432Z,5.73
2022-08-12T04:34:52.930Z,8.00
2022-08-12T04:37:19.783Z,9.23
2022-08-12T04:39:46.811Z,6.80
2022-08-12T04:42:13.862Z,8.70
2022-08-12T04:44:42.236Z,6.23
2022-08-12T04:47:16.580Z,9.30
2022-08-12T04:49:45.909Z,6.97
2022-08-12T04:52:13.119Z,9.60
2022-08-12T04:54:39.989Z,7.57
2022-08-12T04:57:09.810Z,7.00
2022-08-12T04:59:46.882Z,9.40
2022-08-12T05:02:21.770Z,9.37
2022-08-12T05:04:55.747Z,9.47
2022-08-12T05:07:24.396Z,9.00
2022-08-12T05:10:00.161Z,8.47
2022-08-12T05:12:34.234Z,10.13
2022-08-12T05:15:01.080Z,9.97
2022-08-12T05:17:28.282Z,7.57
2022-08-12T05:19:57.227Z,7.37
2022-08-12T05:22:27.993Z,12.27
2022-08-12T05:24:55.075Z,10.80
2022-08-12T05:27:23.062Z,11.17
2022-08-12T05:30:07.678Z,12.83
2022-08-12T05:32:36.478Z,12.83
2022-08-12T05:35:06.593Z,10.10
2022-08-12T05:37:34.943Z,8.23
2022-08-12T05:40:08.296Z,9.23
2022-08-12T05:42:37.908Z,10.03
2022-08-12T05:45:05.986Z,12.93
2022-08-12T05:47:42.743Z,11.90
2022-08-12T05:50:19.807Z,8.03
2022-08-12T05:52:47.930Z,12.50
2022-08-12T05:55:14.974Z,8.50
2022-08-12T05:57:41.621Z,8.70
2022-08-12T06:00:08.764Z,11.63
2022-08-12T06:02:35.702Z,12.97
2022-08-12T06:05:02.744Z,12.43
2022-08-12T06:08:00.661Z,11.53
2022-08-12T06:10:17.706Z,11.53
2022-08-12T06:12:58.881Z,12.50
2022-08-12T06:15:25.588Z,12.10
2022-08-12T06:17:55.328Z,12.07
2022-08-12T06:20:29.080Z,10.43
2022-08-12T06:22:57.005Z,9.57
2022-08-12T06:25:29.271Z,15.13
2022-08-12T06:28:06.318Z,11.90
2022-08-12T06:30:38.549Z,14.13
2022-08-12T06:33:22.255Z,14.07
2022-08-12T06:35:51.882Z,12.77
2022-08-12T06:38:25.229Z,11.10
2022-08-12T06:41:16.427Z,10.50
2022-08-12T06:44:05.025Z,12.57
2022-08-12T06:46:31.137Z,8.97
2022-08-12T06:48:59.575Z,9.30
2022-08-12T06:51:31.172Z,8.90
2022-08-12T06:53:59.255Z,8.93
2022-08-12T06:56:45.972Z,9.17
2022-08-12T06:59:14.200Z,11.77
2022-08-12T07:01:40.881Z,9.43
2022-08-12T07:04:35.684Z,12.27
2022-08-12T07:07:02.917Z,8.37
2022-08-12T07:10:04.628Z,15.73
2022-08-12T07:12:19.997Z,11.10
2022-08-12T07:14:51.498Z,10.47
2022-08-12T07:17:18.723Z,9.33
2022-08-12T07:19:46.887Z,5.50
2022-08-12T07:22:16.203Z,6.07
2022-08-12T07:24:42.991Z,4.73
2022-08-12T07:27:10.128Z,6.03
2022-08-12T07:30:02.510Z,5.27
2022-08-12T07:32:24.700Z,7.97
2022-08-12T07:34:54.709Z,4.33
2022-08-12T07:37:21.497Z,5.27
2022-08-12T07:39:51.303Z,5.87
2022-08-12T07:42:27.952Z,8.57
2022-08-12T07:44:56.001Z,5.57
2022-08-12T07:47:23.320Z,7.87
2022-08-12T07:50:04.271Z,5.63
2022-08-12T07:52:34.143Z,6.70
2022-08-12T07:55:01.750Z,7.33
2022-08-12T07:57:28.447Z,5.53
2022-08-12T07:59:55.570Z,7.53
2022-08-12T08:02:27.064Z,7.47
2022-08-12T08:04:57.278Z,7.13
2022-08-12T08:07:30.635Z,8.37
2022-08-12T08:10:02.299Z,4.50
2022-08-12T08:12:49.142Z,7.93
2022-08-12T08:15:17.110Z,4.47
2022-08-12T08:18:03.269Z,6.47
2022-08-12T08:20:34.019Z,9.23
2022-08-12T08:23:08.128Z,9.43
2022-08-12T08:25:38.771Z,5.70
2022-08-12T08:28:17.253Z,4.47
2022-08-12T08:30:46.143Z,3.73
2022-08-12T08:34:04.732Z,3.03
2022-08-12T08:36:16.604Z,4.67
2022-08-12T08:38:58.432Z,4.23
2022-08-12T08:42:13.922Z,6.80
2022-08-12T08:44:39.564Z,3.23
2022-08-12T08:47:07.823Z,3.10
2022-08-12T08:49:37.376Z,3.37
2022-08-12T08:52:09.545Z,3.17
2022-08-12T08:54:37.848Z,2.87
2022-08-12T08:57:06.262Z,3.23
2022-08-12T08:59:32.928Z,3.97
2022-08-12T09:02:00.692Z,3.30
2022-08-12T09:05:13.858Z,3.83
2022-08-12T09:07:51.070Z,2.50
2022-08-12T09:10:15.457Z,4.80
2022-08-12T09:13:23.662Z,3.83
2022-08-12T09:18:43.597Z,10.47
2022-08-12T09:21:11.293Z,4.87
2022-08-12T09:23:59.488Z,2.50
2022-08-12T09:26:28.258Z,4.13
2022-08-12T09:28:57.133Z,2.60
2022-08-12T09:32:03.916Z,4.43
2022-08-12T09:34:25.702Z,2.53
2022-08-12T09:37:02.605Z,2.40
2022-08-12T09:40:05.625Z,4.20
2022-08-12T09:43:10.975Z,6.00
2022-08-12T09:46:06.466Z,2.67
2022-08-12T09:48:23.787Z,3.30
2022-08-12T09:50:55.187Z,2.60
2022-08-12T09:53:36.127Z,3.40
2022-08-12T09:57:03.182Z,2.93
2022-08-12T09:58:59.827Z,2.63
2022-08-12T10:01:35.626Z,2.80
2022-08-12T10:04:15.023Z,2.47
2022-08-12T10:06:55.268Z,4.73
2022-08-12T10:09:28.215Z,3.33
2022-08-12T10:12:31.129Z,3.17
2022-08-12T10:15:15.368Z,3.33
2022-08-12T10:18:07.022Z,5.10
2022-08-12T10:20:34.599Z,4.13
2022-08-12T10:23:01.920Z,2.97
2022-08-12T10:26:34.605Z,3.57
2022-08-12T10:29:02.357Z,3.60
2022-08-12T10:32:19.553Z,4.17
2022-08-12T10:34:26.369Z,3.10
2022-08-12T10:37:10.556Z,3.30
2022-08-12T10:40:07.098Z,3.10
2022-08-12T10:42:57.558Z,8.23
2022-08-12T10:45:27.419Z,4.27
2022-08-12T10:48:07.304Z,3.40
2022-08-12T10:51:02.126Z,4.90
2022-08-12T10:53:43.867Z,3.03
2022-08-12T10:56:17.228Z,7.90
2022-08-12T10:58:47.261Z,4.67
2022-08-12T11:01:25.775Z,3.93
2022-08-12T11:04:31.297Z,8.80
2022-08-12T11:07:10.201Z,4.07
2022-08-12T11:10:00.072Z,3.70
2022-08-12T11:12:56.543Z,2.70
2022-08-12T11:15:20.826Z,3.93
2022-08-12T11:17:53.851Z,5.70
2022-08-12T11:20:24.221Z,3.33
2022-08-12T11:23:03.788Z,3.93
2022-08-12T11:25:57.733Z,29.57
2022-08-12T11:28:33.940Z,11.60
2022-08-12T11:31:03.612Z,4.20
2022-08-12T11:34:05.527Z,26.07
2022-08-12T11:36:21.806Z,6.80
2022-08-12T11:38:50.360Z,4.63
2022-08-12T11:41:31.861Z,3.17
2022-08-12T11:44:35.463Z,3.80
2022-08-12T11:46:51.425Z,3.00
2022-08-12T11:49:26.821Z,5.33
2022-08-12T11:51:58.895Z,5.20
2022-08-12T11:54:25.581Z,3.00
2022-08-12T11:57:00.352Z,2.80
2022-08-12T12:02:20.149Z,3.03
2022-08-12T12:04:52.692Z,3.30
2022-08-12T12:07:33.662Z,2.97
2022-08-12T12:10:11.071Z,3.00
2022-08-12T12:12:38.128Z,6.90
2022-08-12T12:15:09.689Z,3.40
2022-08-12T12:17:38.461Z,3.37
2022-08-12T12:20:11.498Z,2.73
2022-08-12T12:22:41.472Z,3.03
2022-08-12T12:25:13.725Z,3.53
2022-08-12T12:28:04.696Z,3.43
2022-08-12T12:30:33.018Z,3.10
2022-08-12T12:33:01.082Z,3.00
2022-08-12T12:36:06.444Z,3.40
2022-08-12T12:38:15.993Z,4.17
2022-08-12T12:40:46.172Z,3.00
2022-08-12T12:43:29.019Z,2.67
2022-08-12T12:46:05.427Z,5.37
2022-08-12T12:48:32.073Z,2.90
2022-08-12T12:51:49.136Z,3.37
2022-08-12T12:54:06.145Z,3.20
2022-08-12T12:56:36.645Z,3.40
2022-08-12T12:59:06.922Z,2.80
2022-08-12T13:01:53.925Z,4.20
2022-08-12T13:04:20.697Z,3.33
2022-08-12T13:06:52.087Z,3.77
2022-08-12T13:09:19.441Z,3.40
2022-08-12T13:11:53.150Z,5.30
2022-08-12T13:14:28.141Z,5.37
2022-08-12T13:17:03.609Z,8.70
2022-08-12T13:19:38.958Z,3.40
2022-08-12T13:22:18.538Z,6.57
2022-08-12T13:24:46.434Z,4.60
2022-08-12T13:27:20.912Z,4.30
2022-08-12T13:29:48.944Z,2.87
2022-08-12T13:32:28.191Z,4.20
2022-08-12T13:35:04.305Z,5.30
2022-08-12T13:37:54.661Z,8.93
2022-08-12T13:40:25.689Z,3.70
2022-08-12T13:42:58.008Z,3.40
2022-08-12T13:45:30.893Z,3.37
2022-08-12T13:48:00.123Z,5.83
2022-08-12T13:50:36.252Z,5.30
2022-08-12T13:53:24.605Z,3.50
2022-08-12T13:55:59.446Z,3.37
2022-08-12T13:58:28.855Z,4.53
2022-08-12T14:00:58.258Z,3.33
2022-08-12T14:03:28.416Z,5.57
2022-08-12T14:06:15.633Z,5.20
2022-08-12T14:08:43.272Z,3.67
2022-08-12T14:11:12.311Z,3.37
2022-08-12T14:14:05.232Z,4.47
2022-08-12T14:16:37.586Z,2.50
2022-08-12T14:19:22.203Z,2.60
2022-08-12T14:21:59.544Z,2.73
2022-08-12T14:24:40.351Z,7.53
2022-08-12T14:27:10.424Z,2.53
2022-08-12T14:30:04.380Z,2.97
2022-08-12T14:32:34.846Z,2.60
2022-08-12T14:35:03.112Z,2.73
2022-08-12T14:37:56.509Z,2.23
2022-08-12T14:40:18.632Z,2.67
2022-08-12T14:42:54.718Z,2.90
2022-08-12T14:45:22.920Z,3.73
2022-08-12T14:47:53.655Z,4.67
2022-08-12T14:50:41.815Z,2.87
2022-08-12T14:54:55.944Z,2.53
2022-08-12T14:59:20.182Z,3.90
2022-08-12T15:01:49.745Z,3.30
2022-08-12T15:04:28.574Z,2.77
2022-08-12T15:06:56.170Z,2.43
2022-08-12T15:09:29.035Z,2.73
2022-08-12T15:12:03.254Z,2.60
2022-08-12T15:14:31.582Z,3.23
2022-08-12T15:17:00.692Z,3.93
2022-08-12T15:20:30.959Z,2.77
2022-08-12T15:22:38.599Z,3.80
2022-08-12T15:25:07.214Z,2.63
2022-08-12T15:28:04.109Z,2.40
2022-08-12T15:30:31.433Z,3.97
2022-08-12T15:32:59.009Z,2.90
2022-08-12T15:35:31.399Z,2.70
2022-08-12T15:38:19.755Z,4.23
2022-08-12T15:40:55.425Z,2.70
2022-08-12T15:43:35.447Z,2.50
2022-08-12T15:46:14.893Z,3.07
2022-08-12T15:48:46.700Z,3.80
2022-08-12T15:51:59.509Z,2.10
2022-08-12T15:54:33.522Z,2.80
2022-08-12T15:57:05.542Z,2.77
2022-08-12T16:00:00.231Z,3.17
2022-08-12T16:02:19.867Z,2.67
2022-08-12T16:04:50.512Z,4.03
2022-08-12T16:07:21.776Z,4.10
2022-08-12T16:10:08.478Z,5.47
2022-08-12T16:12:54.318Z,3.60
2022-08-12T16:15:26.436Z,2.77
2022-08-12T16:18:14.657Z,2.60
2022-08-12T16:20:46.484Z,3.53
2022-08-12T16:23:36.423Z,4.53
2022-08-12T16:26:14.683Z,3.30
2022-08-12T16:28:43.859Z,2.73
2022-08-12T16:31:14.499Z,3.00
2022-08-12T16:33:59.562Z,3.80
2022-08-12T16:36:28.975Z,3.07
2022-08-12T16:38:55.715Z,3.67
2022-08-12T16:41:23.308Z,4.80
2022-08-12T16:43:50.586Z,3.03
2022-08-12T16:46:32.607Z,3.27
2022-08-12T16:49:04.309Z,5.73
2022-08-12T16:51:40.313Z,4.67
2022-08-12T16:54:12.747Z,5.23
2022-08-12T16:56:50.893Z,3.03
2022-08-12T16:59:31.146Z,3.23
2022-08-12T17:02:30.058Z,2.97
2022-08-12T17:04:59.849Z,3.23
2022-08-12T17:07:36.587Z,4.60
2022-08-12T17:10:06.900Z,4.93
2022-08-12T17:12:33.703Z,4.10
2022-08-12T17:15:50.141Z,2.83
2022-08-12T17:18:15.254Z,4.40
2022-08-12T17:20:47.426Z,3.43
2022-08-12T17:23:16.569Z,10.27
2022-08-12T17:25:50.493Z,10.23
2022-08-12T17:28:18.218Z,13.57
2022-08-12T17:30:46.119Z,12.07
2022-08-12T17:33:25.238Z,11.57
2022-08-12T17:35:52.061Z,12.97
2022-08-12T17:38:21.099Z,7.00
2022-08-12T17:40:48.574Z,4.47
2022-08-12T17:43:57.833Z,6.93
2022-08-12T17:46:13.068Z,3.20
2022-08-12T17:48:55.444Z,4.37
2022-08-12T17:51:31.415Z,2.90
2022-08-12T17:54:10.493Z,6.37
2022-08-12T17:56:39.338Z,3.40
2022-08-12T17:59:12.163Z,6.30
2022-08-12T18:01:45.065Z,8.70
2022-08-12T18:04:22.633Z,5.43
2022-08-12T18:07:01.662Z,3.40
2022-08-12T18:09:32.192Z,5.03
2022-08-12T18:12:34.405Z,5.57
2022-08-12T18:15:08.943Z,4.43
2022-08-12T18:17:39.108Z,2.93
2022-08-12T18:20:15.498Z,3.23
2022-08-12T18:22:46.754Z,2.93
2022-08-12T18:26:14.728Z,3.10
2022-08-12T18:28:29.067Z,4.53
2022-08-12T18:31:03.071Z,3.13
2022-08-12T18:33:43.809Z,5.23
2022-08-12T18:36:13.414Z,3.57
2022-08-12T18:38:41.190Z,3.63
2022-08-12T18:41:33.627Z,3.10
2022-08-12T18:44:10.217Z,3.77
2022-08-12T18:46:55.721Z,4.93
2022-08-12T18:49:34.912Z,4.63
2022-08-12T18:52:05.799Z,6.93
2022-08-12T18:54:49.334Z,7.97
2022-08-12T18:58:06.919Z,5.20
2022-08-12T19:00:22.157Z,4.03
2022-08-12T19:02:53.454Z,3.60
2022-08-12T19:05:20.828Z,3.40
2022-08-12T19:08:01.800Z,3.43
2022-08-12T19:10:30.845Z,4.03
2022-08-12T19:13:23.359Z,3.30
2022-08-12T19:15:54.779Z,3.57
2022-08-12T19:18:30.199Z,3.23
2022-08-12T19:21:11.742Z,2.97
2022-08-12T19:23:39.326Z,3.47
2022-08-12T19:26:10.787Z,4.30
2022-08-12T19:28:40.141Z,6.97
2022-08-12T19:31:57.241Z,4.40
2022-08-12T19:38:02.535Z,4.50
2022-08-12T19:40:31.693Z,3.33
2022-08-12T19:43:02.363Z,3.70
2022-08-12T19:45:49.575Z,4.67
2022-08-12T19:48:19.154Z,3.97
2022-08-12T19:50:50.211Z,4.43
2022-08-12T19:53:20.508Z,5.27
2022-08-12T19:55:54.752Z,4.97
2022-08-12T19:58:23.192Z,7.70
2022-08-12T20:00:53.565Z,7.53
2022-08-12T20:03:38.006Z,4.03
2022-08-12T20:06:11.278Z,3.10
2022-08-12T20:08:48.924Z,3.77
2022-08-12T20:12:13.201Z,3.23
2022-08-12T20:14:09.099Z,4.90
2022-08-12T20:19:53.211Z,3.40
2022-08-12T20:22:29.896Z,3.27
2022-08-12T20:25:01.707Z,2.93
2022-08-12T20:28:03.076Z,6.83
2022-08-12T20:30:17.908Z,3.30
2022-08-12T20:32:55.857Z,3.37
2022-08-12T20:35:25.039Z,2.97
2022-08-12T20:38:26.836Z,3.43
2022-08-12T20:40:55.221Z,2.77
2022-08-12T20:43:24.178Z,3.40
2022-08-12T20:45:58.086Z,3.30
2022-08-12T20:48:29.597Z,2.87
2022-08-12T20:51:04.550Z,7.37
2022-08-12T20:53:58.074Z,4.93
2022-08-12T20:56:22.165Z,3.17
2022-08-12T20:59:00.048Z,4.33
2022-08-12T21:01:36.601Z,5.83
2022-08-12T21:04:33.806Z,3.60
2022-08-12T21:07:04.675Z,3.37
2022-08-12T21:09:45.540Z,4.57
2022-08-12T21:12:31.611Z,5.53
2022-08-12T21:15:24.336Z,3.70
2022-08-12T21:18:11.252Z,3.53
2022-08-12T21:20:53.168Z,4.10
2022-08-12T21:23:22.553Z,4.03
2022-08-12T21:25:51.297Z,4.67
2022-08-12T21:28:21.070Z,7.37
2022-08-12T21:31:10.836Z,7.90
2022-08-12T21:33:58.378Z,3.57
2022-08-12T21:36:34.545Z,5.03
2022-08-12T21:39:19.002Z,3.70
2022-08-12T21:41:51.264Z,3.43
2022-08-12T21:44:24.213Z,7.33
2022-08-12T21:47:20.404Z,4.83
2022-08-12T21:49:55.237Z,3.63
2022-08-12T21:52:28.311Z,3.20
2022-08-12T21:55:01.523Z,3.37
2022-08-12T21:57:30.422Z,5.07
2022-08-12T22:00:05.646Z,3.80
2022-08-12T22:03:02.030Z,5.70
2022-08-12T22:05:47.212Z,6.73
2022-08-12T22:08:17.094Z,3.80
2022-08-12T22:10:52.354Z,4.47
2022-08-12T22:14:04.142Z,3.63
2022-08-12T22:16:07.036Z,6.57
2022-08-12T22:18:33.772Z,4.73
2022-08-12T22:21:00.463Z,3.47
2022-08-12T22:23:51.179Z,3.57
2022-08-12T22:26:16.052Z,5.83
2022-08-12T22:29:14.598Z,3.57
2022-08-12T22:31:44.039Z,4.13
2022-08-12T22:34:18.056Z,5.93
2022-08-12T22:36:45.166Z,4.93
2022-08-12T22:39:15.837Z,3.07
2022-08-12T22:42:01.147Z,4.30
2022-08-12T22:44:52.758Z,3.10
2022-08-12T22:47:54.136Z,5.67
2022-08-12T22:50:27.114Z,3.80
2022-08-12T22:53:15.098Z,6.63
2022-08-12T22:56:00.672Z,3.70
2022-08-12T22:58:33.699Z,3.93
2022-08-12T23:01:02.400Z,4.07
2022-08-12T23:03:47.880Z,3.87
2022-08-12T23:06:19.418Z,4.03
2022-08-12T23:08:46.484Z,5.13
2022-08-12T23:11:16.072Z,4.57
2022-08-12T23:13:56.267Z,4.17
2022-08-12T23:16:31.202Z,3.97
2022-08-12T23:19:09.616Z,3.90
2022-08-12T23:22:03.183Z,4.70
2022-08-12T23:24:29.386Z,4.70
2022-08-12T23:27:15.089Z,4.63
2022-08-12T23:29:43.160Z,4.70
2022-08-12T23:32:13.477Z,6.57
2022-08-12T23:35:02.659Z,6.10
2022-08-12T23:37:47.814Z,4.80
2022-08-12T23:40:19.650Z,5.07
2022-08-12T23:42:48.177Z,5.23
2022-08-12T23:45:20.146Z,4.17
2022-08-12T23:48:00.226Z,4.30
2022-08-12T23:50:34.542Z,3.90
2022-08-12T23:53:05.329Z,4.97
2022-08-12T23:55:40.986Z,4.50
2022-08-12T23:58:18.156Z,3.83
